Flight Track Log - Related Links

Times and Time Zones

All times are in EDT time to prevent confusion due to time zone crossing. See the EJA258 flight status page for this flight to view local times or setup timezone preferences in your user account.

Time Position Orientation Groundspeed Altitude Reporting Facility
EDT Latitude Longitude Course Direction KTS MPH feet Rate Location/Type
Thu 03:37:23 PM 35.1908 -80.9356 177° South 182 209 1,600  Level Atlanta Center
Thu 03:37:54 PM 35.1658 -80.9342 177° South 194 223 2,900 2,674 Climbing Atlanta Center
Thu 03:38:55 PM 35.1144 -80.8828 141° Southeast 259 298 5,700 2,508 Climbing Atlanta Center
Thu 03:39:56 PM 35.1286 -80.7908 79° East 289 333 8,000 1,917 Climbing Atlanta Center
Thu 03:40:07 PM 35.1328 -80.7856 46° Northeast 291 335 8,000 1,859 Level Atlanta Center
Thu 03:41:07 PM 35.1722 -80.7000 61° Northeast 320 368 10,200 2,000 Climbing Atlanta Center
Thu 03:42:07 PM 35.2194 -80.5989 60° Northeast 320 368 12,000 1,950 Climbing Atlanta Center
Thu 03:43:07 PM 35.2667 -80.5003 60° Northeast 320 368 14,100 2,050 Climbing Atlanta Center
Thu 03:44:07 PM 35.3158 -80.3964 60° Northeast 333 383 16,100 1,785 Climbing Atlanta Center
Thu 03:46:22 PM 35.4239 -80.1647 60° Northeast 368 423 19,900 1,617 Climbing Washington Center
Thu 03:47:20 PM 35.4578 -80.0417 71° East 378 435 21,300 1,462 Climbing Washington Center
Thu 03:48:21 PM 35.4939 -79.9111 71° East 384 442 22,800 1,537 Climbing Washington Center
Thu 03:49:21 PM 35.5278 -79.7750 73° East 394 453 24,400 1,512 Climbing Washington Center
Thu 03:50:24 PM 35.5619 -79.6364 73° East 408 470 25,900 1,488 Climbing Washington Center
Thu 03:51:22 PM 35.6000 -79.4978 71° East 423 487 27,400 1,397 Climbing Washington Center
Thu 03:52:20 PM 35.6439 -79.3619 68° East 423 487 28,600 1,160 Climbing Washington Center
Thu 03:53:21 PM 35.6981 -79.2264 64° Northeast 423 487 29,700 1,041 Climbing Washington Center
Thu 03:54:21 PM 35.7567 -79.0833 63° Northeast 442 509 30,700 992 Climbing Washington Center
Thu 03:55:22 PM 35.8128 -78.9422 64° Northeast 453 521 31,700 1,033 Climbing Washington Center
Thu 03:56:23 PM 35.8733 -78.7911 64° Northeast 463 533 32,800 1,160 Climbing Washington Center
Thu 03:57:21 PM 35.9417 -78.6528 59° Northeast 468 539 34,000 1,261 Climbing Washington Center
Thu 03:58:22 PM 36.0119 -78.5092 59° Northeast 474 545 35,300 1,311 Climbing Washington Center
Thu 03:59:20 PM 36.0800 -78.3675 59° Northeast 474 545 36,600 1,311 Climbing Washington Center
Thu 04:00:21 PM 36.1481 -78.2261 59° Northeast 474 545 37,900 1,289 Climbing Washington Center
Thu 04:01:21 PM 36.2136 -78.0892 59° Northeast 474 545 39,200 1,311 Climbing Washington Center
Thu 04:02:20 PM 36.2789 -77.9469 60° Northeast 474 545 40,500 900 Climbing Washington Center
Thu 04:03:21 PM 36.3464 -77.8072 59° Northeast 474 545 41,000 248 Climbing Washington Center
Thu 04:04:21 PM 36.4156 -77.6619 59° Northeast 479 551 41,000  Level Washington Center
Thu 04:05:22 PM 36.4786 -77.5164 62° Northeast 479 551 41,000  Level Washington Center
Thu 04:06:20 PM 36.5497 -77.3681 59° Northeast 484 557 41,000  Level Washington Center
Thu 04:07:21 PM 36.6208 -77.2172 60° Northeast 489 563 41,000  Level Washington Center
Thu 04:08:21 PM 36.6894 -77.0658 60° Northeast 489 563 41,000  Level Washington Center
Thu 04:09:22 PM 36.7847 -76.9456 45° Northeast 490 564 41,000  Level Washington Center
Thu 04:10:20 PM 36.8944 -76.8436 37° Northeast 477 549 41,000  Level Washington Center
Thu 04:11:21 PM 37.0206 -76.7339 35° Northeast 490 564 41,000  Level Washington Center
Thu 04:12:22 PM 37.1322 -76.6314 36° Northeast 495 570 41,000  Level Washington Center
Thu 04:13:20 PM 37.2433 -76.5311 36° Northeast 495 570 41,000  Level Washington Center
Thu 04:14:21 PM 37.3547 -76.4306 36° Northeast 495 570 41,000  Level Washington Center
Thu 04:15:21 PM 37.4661 -76.3272 36° Northeast 495 570 41,000  Level Washington Center
Thu 04:16:22 PM 37.5772 -76.2258 36° Northeast 495 570 41,000  Level Washington Center
Thu 04:17:20 PM 37.6797 -76.1403 33° Northeast 495 570 41,000  Level Washington Center
Thu 04:18:21 PM 37.8011 -76.0203 38° Northeast 495 570 41,000  Level Washington Center
Thu 04:19:22 PM 37.9100 -75.9181 37° Northeast 495 570 41,000  Level Washington Center
Thu 04:20:20 PM 37.9978 -75.8342 37° Northeast 490 564 41,000  Level Washington Center
Thu 04:21:21 PM 38.1231 -75.7236 35° Northeast 490 564 41,000  Level Washington Center
Thu 04:22:21 PM 38.2356 -75.6261 34° Northeast 490 564 41,000  Level Washington Center
Thu 04:23:22 PM 38.3628 -75.5203 33° Northeast 498 573 41,000  Level Washington Center
Thu 04:24:20 PM 38.4733 -75.4194 36° Northeast 493 567 41,000  Level Washington Center
Thu 04:25:20 PM 38.5856 -75.3233 34° Northeast 488 562 41,000  Level Washington Center
Thu 04:26:20 PM 38.6981 -75.2272 34° Northeast 488 562 41,000  Level Washington Center
Thu 04:27:22 PM 38.8081 -75.1256 36° Northeast 488 562 41,000  Level Washington Center
Thu 04:28:22 PM 38.9181 -75.0286 34° Northeast 488 562 41,000  Level Washington Center
Thu 04:29:20 PM 39.0322 -74.9289 34° Northeast 488 562 41,000  Level Washington Center
Thu 04:30:21 PM 39.1442 -74.8261 35° Northeast 488 562 41,000 -98 Level Washington Center
Thu 04:31:22 PM 39.2519 -74.7286 35° Northeast 488 562 40,800 -1,140 Descending Washington Center
Thu 04:32:22 PM 39.3617 -74.6278 35° Northeast 488 562 38,700 -2,050 Descending Washington Center
Thu 04:33:22 PM 39.4733 -74.5297 34° Northeast 488 562 36,700 -2,012 Descending Washington Center
Thu 04:35:12 PM 39.6736 -74.3500 35° Northeast 540 621 33,000 -2,012 Descending New York Center
Thu 04:36:12 PM 39.7872 -74.2450 35° Northeast 505 581 31,000 -2,050 Descending New York Center
Thu 04:37:12 PM 39.9008 -74.1425 35° Northeast 500 575 28,900 -2,050 Descending New York Center
Thu 04:38:12 PM 40.0100 -74.0392 36° Northeast 494 568 26,900 -1,950 Descending New York Center
Thu 04:39:12 PM 40.1211 -73.9386 35° Northeast 487 560 25,000 -1,000 Descending New York Center
Thu 04:40:12 PM 40.2258 -73.8375 36° Northeast 482 555 24,900 -626 Descending New York Center
Thu 04:42:14 PM 40.4456 -73.6289 36° Northeast 488 562 23,100 -1,022 Descending Boston Center
Thu 04:43:14 PM 40.5550 -73.5244 36° Northeast 488 562 21,800 -1,289 Descending Boston Center
Thu 04:44:15 PM 40.6686 -73.4169 36° Northeast 488 562 20,500 -1,377 Descending Boston Center
Thu 04:45:16 PM 40.7944 -73.3064 34° Northeast 488 562 19,000 -1,240 Descending Boston Center
Thu 04:46:16 PM 40.8975 -73.1842 42° Northeast 488 562 18,000 -1,385 Descending Boston Center
Thu 04:47:13 PM 40.9981 -73.0672 41° Northeast 483 556 16,300 -1,729 Descending Boston Center
Thu 04:48:14 PM 41.0989 -72.9469 42° Northeast 483 556 14,600 -1,651 Descending Boston Center
Thu 04:49:02 PM 41.1742 -72.8619 40° Northeast 467 537 13,300 -1,800 Descending Boston Center
Thu 04:49:14 PM 41.1950 -72.8344 45° Northeast 478 550 12,800 -1,541 Descending Boston Center
Thu 04:50:16 PM 41.2933 -72.7411 35° Northeast 446 513 11,400 -1,174 Descending Boston Center
Thu 04:50:46 PM 41.3497 -72.7358 North 397 457 11,000 -400 Descending Boston Center
Thu 04:51:16 PM 41.3850 -72.7611 332° Northwest 340 391 11,000  Level Boston Center
Thu 04:51:22 PM 41.4078 -72.7722 340° North 349 402 11,000 -984 Level Boston Center
Thu 04:52:17 PM 41.4831 -72.7586 North 311 358 10,000 -1,641 Descending Boston Center
Thu 04:53:30 PM 41.5850 -72.7369 North 294 338 7,500 -2,063 Descending Boston Center
Thu 04:54:25 PM 41.6561 -72.7208 10° North 274 315 5,600 -1,448 Descending Boston Center
Thu 04:55:26 PM 41.7186 -72.6986 15° North 235 270 4,700 -1,041 Descending Boston Center
Thu 04:56:26 PM 41.7750 -72.6628 25° Northeast 225 259 3,500 -1,043 Descending Boston Center
Thu 04:57:21 PM 41.8272 -72.6433 16° North 192 221 2,700 -983 Descending Boston Center
Thu 04:58:22 PM 41.8708 -72.6436 360° North 143 165 1,600 -945 Descending Boston Center
Thu 04:59:28 PM 41.9125 -72.6606 343° North 136 157 700 -818 Descending Boston Center
Thu 05:01:00 PM 41.9333 -72.6833 352° North  Level FlightAware Approximate
Thu 05:08:00 PM 41.9392 -72.6834 352° North  Level Estimated
Thu 05:09:00 PM 41.9333 -72.6833 352° North  Level FlightAware Approximate

Login

Don't have an account? Register now (free) for customized features, flight alerts, and more!